Time;durP1;ratioP1;P1;durP2;ratioP2;P2;SDS_P1;SDS_P2;PMS_P1;PMS_P2;Temp;Humidity;BMP_temperature;BMP_pressure;BME280_temperature;BME280_humidity;BME280_pressure;Samples;Min_cycle;Max_cycle;Signal;HPM_P1;HPM_P2
2022/07/20 00:01:49;;;;;;;5.78;4.22;;;;;;;;;;5077549;28;20489;-69
2022/07/20 00:04:16;;;;;;;3.70;3.20;;;;;;;;;;5076887;28;20612;-68
2022/07/20 00:06:41;;;;;;;4.93;3.90;;;;;;;;;;5077904;28;20104;-69
2022/07/20 00:11:51;;;;;;;5.55;3.72;;;;;;;;;;5082633;28;20023;-71
2022/07/20 00:14:16;;;;;;;4.45;4.13;;;;;;;;;;5077197;28;20028;-70
2022/07/20 00:16:41;;;;;;;6.47;3.90;;;;;;;;;;5073457;28;20290;-69
2022/07/20 00:19:07;;;;;;;6.72;3.90;;;;;;;;;;5074658;28;20035;-69
2022/07/20 00:21:32;;;;;;;4.32;3.90;;;;;;;;;;5075941;28;20035;-68
2022/07/20 00:23:57;;;;;;;6.72;4.15;;;;;;;;;;5076958;28;20027;-69
2022/07/20 00:26:23;;;;;;;3.72;3.47;;;;;;;;;;5077613;28;20552;-68
2022/07/20 00:28:50;;;;;;;5.25;3.75;;;;;;;;;;5072390;28;20033;-68
2022/07/20 00:31:16;;;;;;;3.65;3.35;;;;;;;;;;5072576;28;20112;-68
2022/07/20 00:33:41;;;;;;;4.43;3.30;;;;;;;;;;5074170;28;20033;-68
2022/07/20 00:36:06;;;;;;;3.78;3.47;;;;;;;;;;5072012;28;20032;-68
2022/07/20 00:38:31;;;;;;;4.20;3.80;;;;;;;;;;5069617;28;20426;-68
2022/07/20 00:40:57;;;;;;;7.18;3.72;;;;;;;;;;5054951;28;20045;-69
2022/07/20 00:43:22;;;;;;;4.22;3.92;;;;;;;;;;5053859;28;20021;-68
2022/07/20 00:45:47;;;;;;;5.45;3.38;;;;;;;;;;5052157;28;20037;-68
2022/07/20 00:48:13;;;;;;;4.55;4.15;;;;;;;;;;5052474;28;20040;-68
2022/07/20 00:50:38;;;;;;;4.00;3.42;;;;;;;;;;5053720;28;20087;-68
2022/07/20 00:53:03;;;;;;;3.50;3.30;;;;;;;;;;5053938;28;20135;-67
2022/07/20 00:55:29;;;;;;;6.00;3.95;;;;;;;;;;5054434;28;20021;-68
2022/07/20 00:57:54;;;;;;;3.35;3.05;;;;;;;;;;5054943;28;20452;-68
2022/07/20 01:00:20;;;;;;;4.63;3.42;;;;;;;;;;5036561;28;20043;-68
2022/07/20 01:02:46;;;;;;;3.97;3.35;;;;;;;;;;5053855;28;20025;-68
2022/07/20 01:05:14;;;;;;;7.40;3.47;;;;;;;;;;5046148;28;20032;-69
2022/07/20 01:07:43;;;;;;;4.03;3.50;;;;;;;;;;5054402;28;20025;-69
2022/07/20 01:10:08;;;;;;;3.70;3.35;;;;;;;;;;5054623;28;20024;-68
2022/07/20 01:12:34;;;;;;;4.40;4.10;;;;;;;;;;5054301;28;20384;-69
2022/07/20 01:14:59;;;;;;;3.78;3.47;;;;;;;;;;5054217;28;20029;-69
2022/07/20 01:17:24;;;;;;;3.95;3.58;;;;;;;;;;5055390;28;20025;-68
2022/07/20 01:19:49;;;;;;;5.50;3.63;;;;;;;;;;5054141;28;20044;-69
2022/07/20 01:22:15;;;;;;;3.97;3.67;;;;;;;;;;5053615;28;20032;-69
2022/07/20 01:24:40;;;;;;;4.72;4.30;;;;;;;;;;5038400;28;20119;-68
2022/07/20 01:27:05;;;;;;;4.65;3.72;;;;;;;;;;5054086;28;20128;-68
2022/07/20 01:29:31;;;;;;;4.00;3.55;;;;;;;;;;5052191;28;20131;-69
2022/07/20 01:31:56;;;;;;;4.07;3.28;;;;;;;;;;5054151;28;20075;-68
2022/07/20 01:34:21;;;;;;;6.93;4.38;;;;;;;;;;5053743;28;20021;-69
2022/07/20 01:36:47;;;;;;;6.10;4.07;;;;;;;;;;5054176;28;20021;-68
2022/07/20 01:39:12;;;;;;;3.97;3.60;;;;;;;;;;5053338;28;20064;-68
2022/07/20 01:41:37;;;;;;;4.10;3.80;;;;;;;;;;5053783;28;20107;-69
2022/07/20 01:44:03;;;;;;;4.20;3.80;;;;;;;;;;5053944;28;20517;-69
2022/07/20 01:46:28;;;;;;;4.57;4.20;;;;;;;;;;5054258;28;20438;-69
2022/07/20 01:48:53;;;;;;;4.82;3.50;;;;;;;;;;5054123;28;20032;-68
2022/07/20 01:51:19;;;;;;;3.63;3.35;;;;;;;;;;5053160;28;20631;-68
2022/07/20 01:53:44;;;;;;;4.35;4.03;;;;;;;;;;5053920;28;20330;-69
2022/07/20 01:56:09;;;;;;;3.90;3.30;;;;;;;;;;5053536;28;20079;-68
2022/07/20 01:58:34;;;;;;;4.47;4.10;;;;;;;;;;5054039;28;20451;-68
2022/07/20 02:01:00;;;;;;;3.53;3.20;;;;;;;;;;5052429;28;20036;-68
2022/07/20 02:03:25;;;;;;;4.45;4.03;;;;;;;;;;5054679;28;20025;-68
2022/07/20 02:05:50;;;;;;;4.03;3.42;;;;;;;;;;5053121;28;20467;-69
2022/07/20 02:08:15;;;;;;;5.35;4.00;;;;;;;;;;5053708;28;20103;-67
2022/07/20 02:10:41;;;;;;;4.40;4.03;;;;;;;;;;5038604;28;20483;-68
2022/07/20 02:13:06;;;;;;;3.95;3.65;;;;;;;;;;5054100;28;20064;-68
2022/07/20 02:18:15;;;;;;;3.80;3.40;;;;;;;;;;5052310;28;20071;-68
2022/07/20 02:20:41;;;;;;;5.47;4.65;;;;;;;;;;5052578;28;20123;-68
2022/07/20 02:23:07;;;;;;;4.28;3.92;;;;;;;;;;5052846;28;20032;-67
2022/07/20 02:25:33;;;;;;;5.72;4.28;;;;;;;;;;5052375;28;20051;-68
2022/07/20 02:27:58;;;;;;;4.28;3.88;;;;;;;;;;5054895;28;20032;-68
2022/07/20 02:30:23;;;;;;;5.75;3.92;;;;;;;;;;5053067;28;20036;-68
2022/07/20 02:32:49;;;;;;;5.95;3.97;;;;;;;;;;5054676;28;20230;-70
2022/07/20 02:35:14;;;;;;;5.43;4.28;;;;;;;;;;5051311;28;20021;-68
2022/07/20 02:37:39;;;;;;;4.85;3.95;;;;;;;;;;5044111;28;20035;-68
2022/07/20 02:40:05;;;;;;;4.32;3.78;;;;;;;;;;5050059;28;20057;-68
2022/07/20 02:42:30;;;;;;;3.83;3.53;;;;;;;;;;5072235;28;20071;-68
2022/07/20 02:44:55;;;;;;;4.55;3.78;;;;;;;;;;5072819;28;20077;-68
2022/07/20 02:47:21;;;;;;;8.68;3.85;;;;;;;;;;5072437;28;20058;-69
2022/07/20 02:49:46;;;;;;;4.07;3.50;;;;;;;;;;5070953;28;20024;-67
2022/07/20 02:52:11;;;;;;;4.10;3.80;;;;;;;;;;5072018;28;20681;-69
2022/07/20 02:54:36;;;;;;;4.50;3.90;;;;;;;;;;5073399;28;20451;-68
2022/07/20 02:57:02;;;;;;;4.68;4.18;;;;;;;;;;5072045;28;20279;-68
2022/07/20 02:59:27;;;;;;;5.10;4.60;;;;;;;;;;5070416;28;20111;-68
2022/07/20 03:01:52;;;;;;;4.22;3.80;;;;;;;;;;5070474;28;20028;-68
2022/07/20 03:04:17;;;;;;;4.13;3.60;;;;;;;;;;5073874;28;20382;-68
2022/07/20 03:06:43;;;;;;;4.65;4.25;;;;;;;;;;5072148;28;20035;-68
2022/07/20 03:09:08;;;;;;;4.43;4.03;;;;;;;;;;5055765;28;20024;-68
2022/07/20 03:11:33;;;;;;;3.90;3.60;;;;;;;;;;5070051;28;20144;-67
2022/07/20 03:13:58;;;;;;;4.25;3.95;;;;;;;;;;5071948;28;20035;-68
2022/07/20 03:16:23;;;;;;;4.93;4.05;;;;;;;;;;5072532;28;20032;-68
2022/07/20 03:18:49;;;;;;;5.53;4.05;;;;;;;;;;5072001;28;20533;-68
2022/07/20 03:21:14;;;;;;;4.78;4.05;;;;;;;;;;5072795;28;20039;-68
2022/07/20 03:23:39;;;;;;;4.60;4.22;;;;;;;;;;5071983;28;20016;-68
2022/07/20 03:26:05;;;;;;;5.53;4.50;;;;;;;;;;5072518;28;20086;-68
2022/07/20 03:28:30;;;;;;;5.05;3.80;;;;;;;;;;5071392;28;20052;-68
2022/07/20 03:30:55;;;;;;;6.35;4.70;;;;;;;;;;5070057;28;20032;-68
2022/07/20 03:33:20;;;;;;;4.78;4.38;;;;;;;;;;5068879;28;20040;-68
2022/07/20 03:35:46;;;;;;;5.25;4.70;;;;;;;;;;5071219;28;20538;-67
2022/07/20 03:38:11;;;;;;;4.53;4.10;;;;;;;;;;5071664;28;20580;-67
2022/07/20 03:40:36;;;;;;;5.57;4.30;;;;;;;;;;5051521;28;20139;-67
2022/07/20 03:43:01;;;;;;;4.40;4.03;;;;;;;;;;5036641;28;20036;-68
2022/07/20 03:45:27;;;;;;;4.85;4.30;;;;;;;;;;5052698;28;20103;-67
2022/07/20 03:47:52;;;;;;;4.60;4.20;;;;;;;;;;5051461;28;20055;-68
2022/07/20 03:50:17;;;;;;;4.55;4.15;;;;;;;;;;5049587;28;20452;-68
2022/07/20 03:52:42;;;;;;;5.25;4.78;;;;;;;;;;5029123;28;20037;-68
2022/07/20 03:55:08;;;;;;;4.45;4.15;;;;;;;;;;5035604;28;20031;-68
2022/07/20 03:57:33;;;;;;;4.75;4.10;;;;;;;;;;5031576;28;20119;-67
2022/07/20 03:59:58;;;;;;;4.35;3.97;;;;;;;;;;5052065;28;20037;-68
2022/07/20 04:02:23;;;;;;;4.78;4.25;;;;;;;;;;5050422;28;20536;-68
2022/07/20 04:04:49;;;;;;;4.60;4.22;;;;;;;;;;5051437;28;20116;-68
2022/07/20 04:07:14;;;;;;;4.78;4.30;;;;;;;;;;5049347;28;20112;-68
2022/07/20 04:09:46;;;;;;;5.38;4.65;;;;;;;;;;5052535;28;20403;-68
2022/07/20 04:12:14;;;;;;;5.20;4.35;;;;;;;;;;5052459;28;20021;-68
2022/07/20 04:14:40;;;;;;;4.63;4.30;;;;;;;;;;5052792;28;20028;-68
2022/07/20 04:17:06;;;;;;;4.70;4.30;;;;;;;;;;5051514;28;20075;-70
2022/07/20 04:19:31;;;;;;;4.60;4.25;;;;;;;;;;5049928;28;20546;-68
2022/07/20 04:21:58;;;;;;;13.90;4.65;;;;;;;;;;5035081;28;20028;-68
2022/07/20 04:24:24;;;;;;;5.82;4.07;;;;;;;;;;5052222;28;20272;-68
2022/07/20 04:26:49;;;;;;;4.45;4.13;;;;;;;;;;5051615;28;20028;-68
2022/07/20 04:29:14;;;;;;;5.15;4.72;;;;;;;;;;5050702;28;20033;-70
2022/07/20 04:31:39;;;;;;;4.25;3.92;;;;;;;;;;5051300;28;20033;-68
2022/07/20 04:34:04;;;;;;;5.07;4.32;;;;;;;;;;5050713;28;20417;-69
2022/07/20 04:36:30;;;;;;;4.25;3.95;;;;;;;;;;5051492;28;20436;-67
2022/07/20 04:38:55;;;;;;;4.10;3.80;;;;;;;;;;5051701;28;20060;-69
2022/07/20 04:41:20;;;;;;;5.18;4.78;;;;;;;;;;5051593;28;20025;-67
2022/07/20 04:43:45;;;;;;;7.20;5.32;;;;;;;;;;5052075;28;20082;-68
2022/07/20 04:46:11;;;;;;;5.07;4.55;;;;;;;;;;5055287;28;20052;-69
2022/07/20 04:48:36;;;;;;;5.95;5.15;;;;;;;;;;5042619;28;20125;-69
2022/07/20 04:51:01;;;;;;;6.88;4.88;;;;;;;;;;5055119;28;20108;-68
2022/07/20 04:53:27;;;;;;;5.13;4.68;;;;;;;;;;5037052;28;20064;-69
2022/07/20 04:55:53;;;;;;;5.88;4.85;;;;;;;;;;5052412;28;20537;-68
2022/07/20 04:58:18;;;;;;;6.45;5.00;;;;;;;;;;5052959;28;20029;-67
2022/07/20 05:00:43;;;;;;;6.43;5.28;;;;;;;;;;5052698;28;20416;-68
2022/07/20 05:03:08;;;;;;;5.68;4.95;;;;;;;;;;5037661;28;20029;-69
2022/07/20 05:05:34;;;;;;;5.40;4.90;;;;;;;;;;5036030;28;20434;-70
2022/07/20 05:07:59;;;;;;;9.80;5.05;;;;;;;;;;5053673;28;20594;-70
2022/07/20 05:10:24;;;;;;;5.93;5.35;;;;;;;;;;5054621;28;20040;-68
2022/07/20 05:12:49;;;;;;;6.78;4.85;;;;;;;;;;5021397;28;20029;-69
2022/07/20 05:15:16;;;;;;;5.80;5.30;;;;;;;;;;5052298;28;20025;-69
2022/07/20 05:17:41;;;;;;;6.13;4.90;;;;;;;;;;5054035;28;20116;-69
2022/07/20 05:20:07;;;;;;;5.93;4.70;;;;;;;;;;5053977;28;20032;-68
2022/07/20 05:22:32;;;;;;;6.20;5.10;;;;;;;;;;5055364;28;20094;-68
2022/07/20 05:24:57;;;;;;;5.35;4.85;;;;;;;;;;5039788;28;20024;-69
2022/07/20 05:27:23;;;;;;;5.38;4.88;;;;;;;;;;5050571;28;20478;-69
2022/07/20 05:29:48;;;;;;;7.03;6.40;;;;;;;;;;5051722;28;20040;-69
2022/07/20 05:32:13;;;;;;;12.15;7.82;;;;;;;;;;5053294;28;20033;-69
2022/07/20 05:34:38;;;;;;;17.75;9.98;;;;;;;;;;5035845;28;20489;-69
2022/07/20 05:37:04;;;;;;;10.20;8.75;;;;;;;;;;5054019;28;20036;-68
2022/07/20 05:39:29;;;;;;;13.93;9.93;;;;;;;;;;5050843;28;20087;-69
2022/07/20 05:41:54;;;;;;;14.15;10.00;;;;;;;;;;5053875;28;20150;-68
2022/07/20 05:44:19;;;;;;;11.55;9.48;;;;;;;;;;5038872;28;20470;-69
2022/07/20 05:46:45;;;;;;;16.02;10.38;;;;;;;;;;5052484;28;20097;-66
2022/07/20 05:49:10;;;;;;;9.02;7.40;;;;;;;;;;5053814;28;20017;-67
2022/07/20 05:51:35;;;;;;;6.68;6.13;;;;;;;;;;5054790;28;20029;-69
2022/07/20 05:54:00;;;;;;;6.75;5.50;;;;;;;;;;5055227;28;20422;-67
2022/07/20 05:56:26;;;;;;;5.95;5.45;;;;;;;;;;5052044;28;20036;-67
2022/07/20 05:58:51;;;;;;;8.52;6.10;;;;;;;;;;5053165;28;20044;-67
2022/07/20 06:01:16;;;;;;;6.10;5.60;;;;;;;;;;5054186;28;20072;-67
2022/07/20 06:03:42;;;;;;;5.55;4.90;;;;;;;;;;5053247;28;20032;-66
2022/07/20 06:06:07;;;;;;;6.47;5.53;;;;;;;;;;5053532;28;20108;-67
2022/07/20 06:08:32;;;;;;;10.18;4.97;;;;;;;;;;5044704;28;20479;-68
2022/07/20 06:10:57;;;;;;;6.00;5.22;;;;;;;;;;5054551;28;20056;-68
2022/07/20 06:13:22;;;;;;;8.20;5.50;;;;;;;;;;5038512;28;20522;-68
2022/07/20 06:15:48;;;;;;;7.00;4.88;;;;;;;;;;5051974;28;20090;-68
2022/07/20 06:18:13;;;;;;;8.63;4.78;;;;;;;;;;5052237;28;20083;-68
2022/07/20 06:20:38;;;;;;;5.88;5.20;;;;;;;;;;5034808;28;20033;-68
2022/07/20 06:23:03;;;;;;;5.88;5.30;;;;;;;;;;5053230;28;20025;-68
2022/07/20 06:25:29;;;;;;;8.95;5.10;;;;;;;;;;5052336;28;20527;-67
2022/07/20 06:27:57;;;;;;;11.13;5.28;;;;;;;;;;5053955;28;20025;-68
2022/07/20 06:30:22;;;;;;;15.77;5.40;;;;;;;;;;5052159;28;20037;-68
2022/07/20 06:32:47;;;;;;;9.23;5.00;;;;;;;;;;5054151;28;20036;-68
2022/07/20 06:35:13;;;;;;;13.00;6.18;;;;;;;;;;5021322;28;20060;-68
2022/07/20 06:37:39;;;;;;;7.68;5.10;;;;;;;;;;5051904;28;20036;-69
2022/07/20 06:40:05;;;;;;;10.65;5.20;;;;;;;;;;5066476;28;20603;-68
2022/07/20 06:42:31;;;;;;;9.48;6.10;;;;;;;;;;5073279;28;20032;-69
2022/07/20 06:44:56;;;;;;;10.23;5.25;;;;;;;;;;5071385;28;20531;-69
2022/07/20 06:47:22;;;;;;;9.52;5.43;;;;;;;;;;5068482;28;20028;-69
2022/07/20 06:49:47;;;;;;;5.65;5.10;;;;;;;;;;5070212;28;20466;-68
2022/07/20 06:52:13;;;;;;;7.60;5.30;;;;;;;;;;5072189;28;20389;-68
2022/07/20 06:54:38;;;;;;;7.00;5.30;;;;;;;;;;5071608;28;20561;-68
2022/07/20 06:57:03;;;;;;;8.00;5.97;;;;;;;;;;5073603;28;20047;-68
2022/07/20 06:59:28;;;;;;;7.75;5.25;;;;;;;;;;5072123;28;20454;-68
2022/07/20 07:01:53;;;;;;;12.98;6.45;;;;;;;;;;5070079;28;20028;-68
2022/07/20 07:04:19;;;;;;;6.07;4.65;;;;;;;;;;5071912;28;20112;-67
2022/07/20 07:06:45;;;;;;;10.35;4.38;;;;;;;;;;5072121;28;20163;-68
2022/07/20 07:09:10;;;;;;;5.82;4.45;;;;;;;;;;5072660;28;20538;-68
2022/07/20 07:11:36;;;;;;;13.93;5.32;;;;;;;;;;5073135;28;20025;-68
2022/07/20 07:14:02;;;;;;;5.60;4.65;;;;;;;;;;5071797;28;20108;-67
2022/07/20 07:16:27;;;;;;;5.55;4.57;;;;;;;;;;5070507;28;20028;-68
2022/07/20 07:18:52;;;;;;;4.75;4.35;;;;;;;;;;5072260;28;20035;-68
2022/07/20 07:21:18;;;;;;;9.32;5.32;;;;;;;;;;5071919;28;20036;-68
2022/07/20 07:23:45;;;;;;;6.90;5.45;;;;;;;;;;5073211;28;20485;-68
2022/07/20 07:26:11;;;;;;;4.80;4.20;;;;;;;;;;5071862;28;20093;-68
2022/07/20 07:28:36;;;;;;;6.20;4.60;;;;;;;;;;5088297;28;20459;-68
2022/07/20 07:31:01;;;;;;;4.88;4.47;;;;;;;;;;5071965;28;20036;-68
2022/07/20 07:33:27;;;;;;;8.18;5.22;;;;;;;;;;5072693;28;20442;-70
2022/07/20 07:35:53;;;;;;;7.13;4.78;;;;;;;;;;5072659;28;20033;-68
2022/07/20 07:38:18;;;;;;;7.32;5.20;;;;;;;;;;5072276;28;20036;-70
2022/07/20 07:40:44;;;;;;;5.38;4.75;;;;;;;;;;5053046;28;20337;-69
2022/07/20 07:43:09;;;;;;;5.25;4.75;;;;;;;;;;5051484;28;20590;-68
2022/07/20 07:45:34;;;;;;;4.43;4.03;;;;;;;;;;5051951;28;20037;-68
2022/07/20 07:48:00;;;;;;;5.07;4.65;;;;;;;;;;5051539;28;20024;-68
2022/07/20 07:50:25;;;;;;;8.40;4.85;;;;;;;;;;5052902;28;20399;-68
2022/07/20 07:52:50;;;;;;;4.93;4.45;;;;;;;;;;5052117;28;20032;-69
2022/07/20 07:55:15;;;;;;;5.40;4.90;;;;;;;;;;5051138;28;20389;-67
2022/07/20 07:57:41;;;;;;;7.32;4.30;;;;;;;;;;5049592;28;20122;-68
2022/07/20 08:00:07;;;;;;;6.97;4.65;;;;;;;;;;5049774;28;20047;-68
2022/07/20 08:02:33;;;;;;;5.65;3.95;;;;;;;;;;5050929;28;20032;-68
2022/07/20 08:04:58;;;;;;;6.35;3.85;;;;;;;;;;5049339;28;20542;-68
2022/07/20 08:07:23;;;;;;;6.55;3.75;;;;;;;;;;5049749;28;20036;-69
2022/07/20 08:09:48;;;;;;;8.18;4.63;;;;;;;;;;5050709;28;20257;-69
2022/07/20 08:12:14;;;;;;;4.55;4.10;;;;;;;;;;5050714;28;20072;-68
2022/07/20 08:14:39;;;;;;;5.28;4.25;;;;;;;;;;5049200;28;20415;-68
2022/07/20 08:17:04;;;;;;;8.13;5.18;;;;;;;;;;5050522;28;20029;-69
2022/07/20 08:19:30;;;;;;;6.78;4.93;;;;;;;;;;5055026;28;20025;-68
2022/07/20 08:21:55;;;;;;;6.03;4.80;;;;;;;;;;5055599;28;20064;-69
2022/07/20 08:24:20;;;;;;;5.20;4.70;;;;;;;;;;5055317;28;20050;-68
2022/07/20 08:26:45;;;;;;;6.32;4.70;;;;;;;;;;5054542;28;20446;-69
2022/07/20 08:29:11;;;;;;;8.15;4.85;;;;;;;;;;5054244;28;20121;-68
2022/07/20 08:31:36;;;;;;;8.73;5.00;;;;;;;;;;5054963;28;20055;-69
2022/07/20 08:34:01;;;;;;;7.70;5.60;;;;;;;;;;5055386;28;20030;-70
2022/07/20 08:36:27;;;;;;;6.30;5.53;;;;;;;;;;5039565;28;20572;-67
2022/07/20 08:38:52;;;;;;;7.22;4.57;;;;;;;;;;5055804;28;20049;-67
2022/07/20 08:41:18;;;;;;;4.82;4.03;;;;;;;;;;5056028;28;20039;-68
2022/07/20 08:43:43;;;;;;;8.80;3.75;;;;;;;;;;5054582;28;20494;-68
2022/07/20 08:46:09;;;;;;;6.50;2.95;;;;;;;;;;5054526;28;20387;-67
2022/07/20 08:48:35;;;;;;;6.47;3.60;;;;;;;;;;5054720;28;20025;-67
2022/07/20 08:51:00;;;;;;;8.85;3.47;;;;;;;;;;5053682;28;20036;-68
2022/07/20 08:53:25;;;;;;;10.25;4.18;;;;;;;;;;5053460;28;20444;-67
2022/07/20 08:55:51;;;;;;;12.35;3.78;;;;;;;;;;5054297;28;20029;-67
2022/07/20 08:58:16;;;;;;;6.55;3.92;;;;;;;;;;5054871;28;20032;-68
2022/07/20 09:00:41;;;;;;;8.70;4.18;;;;;;;;;;5054719;28;20530;-68
2022/07/20 09:03:07;;;;;;;4.63;4.03;;;;;;;;;;5053806;28;20037;-69
2022/07/20 09:05:34;;;;;;;6.50;4.18;;;;;;;;;;5055024;28;20032;-69
2022/07/20 09:08:00;;;;;;;4.35;4.00;;;;;;;;;;5040056;28;20025;-68
2022/07/20 09:10:26;;;;;;;6.30;3.83;;;;;;;;;;5054147;28;20059;-68
2022/07/20 09:12:54;;;;;;;9.10;4.05;;;;;;;;;;5037135;28;20807;-68
2022/07/20 09:15:38;;;;;;;5.43;4.03;;;;;;;;;;5052101;28;20024;-68
2022/07/20 09:18:05;;;;;;;4.38;3.75;;;;;;;;;;5052664;28;20467;-68
2022/07/20 09:20:31;;;;;;;6.00;3.90;;;;;;;;;;5053461;28;20426;-68
2022/07/20 09:23:04;;;;;;;9.55;4.22;;;;;;;;;;5053796;28;20511;-67
2022/07/20 09:25:29;;;;;;;8.52;3.92;;;;;;;;;;5053264;28;20440;-67
2022/07/20 09:27:56;;;;;;;8.57;3.88;;;;;;;;;;5053273;28;20383;-68
2022/07/20 09:30:21;;;;;;;6.50;3.78;;;;;;;;;;5050251;28;20047;-68
2022/07/20 09:32:54;;;;;;;4.18;3.80;;;;;;;;;;5036616;28;20369;-68
2022/07/20 09:35:20;;;;;;;4.55;3.80;;;;;;;;;;5054519;28;20109;-68
2022/07/20 09:37:45;;;;;;;4.60;3.25;;;;;;;;;;5050714;28;20108;-69
2022/07/20 09:40:11;;;;;;;7.43;3.65;;;;;;;;;;5052387;28;20055;-69
2022/07/20 09:42:37;;;;;;;4.03;3.60;;;;;;;;;;5052955;28;20021;-69
2022/07/20 09:45:18;;;;;;;4.38;4.00;;;;;;;;;;5051874;28;20478;-69
2022/07/20 09:48:06;;;;;;;3.80;3.22;;;;;;;;;;5054528;28;20033;-69
2022/07/20 09:50:34;;;;;;;4.60;4.20;;;;;;;;;;5053538;28;20125;-69
2022/07/20 09:52:59;;;;;;;4.55;4.20;;;;;;;;;;5053382;28;20017;-69
2022/07/20 09:55:25;;;;;;;4.90;3.72;;;;;;;;;;5050978;28;20075;-69
2022/07/20 09:57:51;;;;;;;3.63;3.33;;;;;;;;;;5050468;28;20105;-69
2022/07/20 10:00:17;;;;;;;4.30;3.83;;;;;;;;;;5052723;28;20036;-69
2022/07/20 10:02:46;;;;;;;4.30;4.03;;;;;;;;;;5054747;28;20463;-68
2022/07/20 10:05:11;;;;;;;4.40;4.05;;;;;;;;;;5051971;28;20387;-69
2022/07/20 10:07:37;;;;;;;3.80;3.53;;;;;;;;;;5051621;28;20506;-68
2022/07/20 10:10:02;;;;;;;3.80;3.50;;;;;;;;;;5049927;28;20124;-68
2022/07/20 10:12:28;;;;;;;14.10;4.35;;;;;;;;;;5052950;28;20560;-68
2022/07/20 10:14:55;;;;;;;4.15;3.95;;;;;;;;;;5052424;28;20088;-68
2022/07/20 10:17:20;;;;;;;4.78;4.38;;;;;;;;;;5051127;28;20025;-68
2022/07/20 10:19:47;;;;;;;5.75;5.32;;;;;;;;;;5051992;28;20452;-69
2022/07/20 10:22:12;;;;;;;6.38;3.95;;;;;;;;;;5051485;28;20046;-68
2022/07/20 10:24:39;;;;;;;4.00;3.60;;;;;;;;;;5034660;28;20028;-68
2022/07/20 10:27:04;;;;;;;5.85;5.22;;;;;;;;;;5052473;28;20040;-69
2022/07/20 10:29:31;;;;;;;5.75;3.55;;;;;;;;;;5049488;28;20033;-69
2022/07/20 10:32:11;;;;;;;4.60;3.90;;;;;;;;;;5043365;28;20035;-69
2022/07/20 10:34:47;;;;;;;5.82;3.42;;;;;;;;;;5052230;28;20025;-70
2022/07/20 10:37:18;;;;;;;9.77;4.32;;;;;;;;;;5050075;28;20024;-69
2022/07/20 10:39:45;;;;;;;3.95;3.75;;;;;;;;;;5049233;28;20088;-68
2022/07/20 10:42:24;;;;;;;4.80;3.95;;;;;;;;;;5049096;28;20472;-69
2022/07/20 10:44:50;;;;;;;5.00;4.35;;;;;;;;;;5053027;28;20032;-69
2022/07/20 10:47:34;;;;;;;4.07;3.78;;;;;;;;;;5051374;28;20514;-69
2022/07/20 10:50:02;;;;;;;4.85;4.43;;;;;;;;;;5050291;28;20029;-69
2022/07/20 10:52:34;;;;;;;5.65;4.38;;;;;;;;;;5052260;28;20079;-67
2022/07/20 10:54:59;;;;;;;3.97;3.67;;;;;;;;;;5043517;28;20064;-67
2022/07/20 10:57:25;;;;;;;4.93;4.30;;;;;;;;;;5054111;28;20032;-69
2022/07/20 11:00:10;;;;;;;4.57;4.15;;;;;;;;;;5051638;28;20040;-68
2022/07/20 11:02:35;;;;;;;4.97;4.57;;;;;;;;;;5050715;28;20090;-68
2022/07/20 11:05:01;;;;;;;4.43;3.88;;;;;;;;;;5053235;28;20120;-68
2022/07/20 11:07:28;;;;;;;4.55;4.15;;;;;;;;;;5052792;28;20055;-70
2022/07/20 11:09:53;;;;;;;4.22;3.92;;;;;;;;;;5051847;28;20113;-68
2022/07/20 11:12:26;;;;;;;5.20;4.75;;;;;;;;;;5053507;28;20036;-70
2022/07/20 11:14:52;;;;;;;5.07;4.15;;;;;;;;;;5054133;28;20024;-68
2022/07/20 11:17:17;;;;;;;4.68;4.28;;;;;;;;;;5057587;28;20021;-69
2022/07/20 11:19:42;;;;;;;6.28;3.95;;;;;;;;;;5039563;28;20040;-70
2022/07/20 11:22:08;;;;;;;5.03;4.60;;;;;;;;;;5054020;28;20029;-69
2022/07/20 11:24:34;;;;;;;5.15;4.85;;;;;;;;;;5053688;28;20029;-70
2022/07/20 11:27:11;;;;;;;6.68;5.10;;;;;;;;;;5051744;28;20024;-69
2022/07/20 11:29:44;;;;;;;4.25;3.95;;;;;;;;;;5050632;28;20048;-69
2022/07/20 11:32:10;;;;;;;5.63;3.72;;;;;;;;;;5051512;28;20025;-69
2022/07/20 11:34:46;;;;;;;5.55;3.45;;;;;;;;;;5048772;28;20087;-68
2022/07/20 11:37:13;;;;;;;6.45;3.85;;;;;;;;;;5052013;28;20033;-67
2022/07/20 11:39:39;;;;;;;5.18;4.38;;;;;;;;;;5064491;28;20048;-68
2022/07/20 11:42:09;;;;;;;4.35;4.07;;;;;;;;;;5072073;28;20047;-68
2022/07/20 11:44:34;;;;;;;4.65;4.25;;;;;;;;;;5072854;28;20032;-68
2022/07/20 11:47:00;;;;;;;4.78;4.55;;;;;;;;;;5071286;28;20078;-67
2022/07/20 11:49:26;;;;;;;5.10;4.70;;;;;;;;;;5069713;28;20112;-68
2022/07/20 11:52:03;;;;;;;5.03;4.63;;;;;;;;;;5070792;28;20126;-68
2022/07/20 11:54:35;;;;;;;6.22;4.28;;;;;;;;;;5078806;28;20046;-69
2022/07/20 11:57:01;;;;;;;5.13;4.68;;;;;;;;;;5079671;28;20020;-69
2022/07/20 11:59:26;;;;;;;5.25;4.60;;;;;;;;;;5076075;28;20117;-68
2022/07/20 12:01:52;;;;;;;4.80;4.47;;;;;;;;;;5078340;28;20032;-68
2022/07/20 12:04:19;;;;;;;10.25;5.13;;;;;;;;;;5079347;28;20020;-69
2022/07/20 12:06:44;;;;;;;5.10;3.72;;;;;;;;;;5078889;28;20028;-68
2022/07/20 12:09:11;;;;;;;4.47;4.10;;;;;;;;;;5078722;28;20090;-68
2022/07/20 12:11:52;;;;;;;3.78;3.53;;;;;;;;;;5078151;28;20703;-67
2022/07/20 12:14:27;;;;;;;5.20;4.75;;;;;;;;;;5077946;28;20027;-69
2022/07/20 12:16:53;;;;;;;5.43;4.03;;;;;;;;;;5078900;28;20031;-70
2022/07/20 12:19:18;;;;;;;4.93;4.03;;;;;;;;;;5077970;28;20524;-68
2022/07/20 12:21:44;;;;;;;4.47;4.13;;;;;;;;;;5078568;28;20117;-68
2022/07/20 12:24:09;;;;;;;4.40;4.07;;;;;;;;;;5079843;28;20479;-69
2022/07/20 12:26:35;;;;;;;4.50;4.30;;;;;;;;;;5078697;28;20020;-68
2022/07/20 12:29:36;;;;;;;4.47;4.07;;;;;;;;;;5078440;28;20064;-66
2022/07/20 12:32:01;;;;;;;4.55;4.28;;;;;;;;;;5026836;28;20664;-69
2022/07/20 12:34:27;;;;;;;4.45;4.05;;;;;;;;;;5025389;28;20033;-69
2022/07/20 12:36:52;;;;;;;5.45;4.07;;;;;;;;;;5027252;28;20399;-70
2022/07/20 12:39:38;;;;;;;4.80;4.50;;;;;;;;;;5014871;28;20108;-70
2022/07/20 12:42:19;;;;;;;4.78;3.75;;;;;;;;;;5005039;28;20048;-69
2022/07/20 12:44:48;;;;;;;6.65;4.85;;;;;;;;;;5003852;28;20025;-70
2022/07/20 12:47:14;;;;;;;6.47;3.95;;;;;;;;;;5006283;28;20068;-68
2022/07/20 12:49:39;;;;;;;6.00;4.50;;;;;;;;;;5006843;28;20145;-68
2022/07/20 12:52:04;;;;;;;4.57;4.18;;;;;;;;;;5007219;28;20029;-69
2022/07/20 12:54:30;;;;;;;4.38;3.97;;;;;;;;;;5004824;28;20565;-68
2022/07/20 12:56:56;;;;;;;4.32;4.05;;;;;;;;;;5005192;28;20033;-68
2022/07/20 12:59:21;;;;;;;4.57;4.28;;;;;;;;;;5004304;28;20104;-68
2022/07/20 13:01:49;;;;;;;4.53;4.00;;;;;;;;;;5005248;28;20041;-68
2022/07/20 13:04:18;;;;;;;3.80;3.60;;;;;;;;;;5002774;28;20395;-68
2022/07/20 13:06:46;;;;;;;4.20;3.80;;;;;;;;;;5040511;28;20041;-69
2022/07/20 13:09:12;;;;;;;4.70;4.28;;;;;;;;;;5054121;28;20457;-70
2022/07/20 13:11:40;;;;;;;4.05;3.75;;;;;;;;;;5052315;28;20047;-69
2022/07/20 13:14:05;;;;;;;4.28;4.07;;;;;;;;;;5051188;28;20027;-70
2022/07/20 13:16:31;;;;;;;8.15;4.32;;;;;;;;;;5051596;28;20029;-70
2022/07/20 13:18:58;;;;;;;4.47;4.18;;;;;;;;;;5052718;28;20395;-70
2022/07/20 13:21:23;;;;;;;4.93;4.32;;;;;;;;;;5054377;28;20653;-69
2022/07/20 13:23:49;;;;;;;5.38;3.63;;;;;;;;;;5035962;28;20037;-68
2022/07/20 13:26:14;;;;;;;4.25;3.95;;;;;;;;;;5051449;28;20113;-68
2022/07/20 13:28:39;;;;;;;7.05;4.50;;;;;;;;;;5053434;28;20024;-69
2022/07/20 13:31:05;;;;;;;4.35;4.05;;;;;;;;;;5034417;28;20029;-68
2022/07/20 13:33:30;;;;;;;5.75;3.90;;;;;;;;;;5050187;28;20059;-68
2022/07/20 13:35:55;;;;;;;4.00;3.70;;;;;;;;;;5035319;28;20040;-69
2022/07/20 13:38:21;;;;;;;5.10;4.80;;;;;;;;;;5052027;28;20029;-69
2022/07/20 13:40:46;;;;;;;4.68;4.38;;;;;;;;;;5035043;28;20107;-69
2022/07/20 13:43:11;;;;;;;4.53;3.90;;;;;;;;;;5050472;28;20032;-69
2022/07/20 13:45:37;;;;;;;4.57;4.28;;;;;;;;;;5020404;28;20060;-69
2022/07/20 13:48:03;;;;;;;4.20;4.00;;;;;;;;;;5021399;28;20044;-68
2022/07/20 13:50:28;;;;;;;7.53;4.57;;;;;;;;;;5052390;28;20033;-69
2022/07/20 13:52:53;;;;;;;4.93;4.55;;;;;;;;;;5052010;28;20043;-69
2022/07/20 13:55:18;;;;;;;6.55;3.63;;;;;;;;;;5053048;28;20381;-69
2022/07/20 13:57:44;;;;;;;4.80;4.17;;;;;;;;;;5051819;28;20086;-69
2022/07/20 14:00:10;;;;;;;5.30;4.70;;;;;;;;;;5054471;28;20306;-70
2022/07/20 14:02:35;;;;;;;4.68;4.28;;;;;;;;;;5052740;28;20037;-69
2022/07/20 14:05:01;;;;;;;4.53;4.20;;;;;;;;;;5051657;28;20059;-69
2022/07/20 14:07:26;;;;;;;5.53;4.20;;;;;;;;;;5053052;28;20060;-69
2022/07/20 14:09:51;;;;;;;4.70;4.20;;;;;;;;;;5038065;28;20024;-69
2022/07/20 14:12:16;;;;;;;4.60;4.15;;;;;;;;;;5053111;28;20114;-68
2022/07/20 14:14:42;;;;;;;4.95;4.30;;;;;;;;;;5035774;28;20366;-69
2022/07/20 14:17:08;;;;;;;4.35;4.05;;;;;;;;;;5032609;28;20161;-69
2022/07/20 14:19:34;;;;;;;4.65;4.25;;;;;;;;;;5052813;28;20123;-69
2022/07/20 14:21:59;;;;;;;5.05;4.55;;;;;;;;;;5053440;28;20392;-70
2022/07/20 14:24:24;;;;;;;5.57;3.73;;;;;;;;;;5051432;28;20576;-69
2022/07/20 14:26:49;;;;;;;5.37;4.37;;;;;;;;;;5052356;28;20722;-70
2022/07/20 14:29:15;;;;;;;5.88;4.35;;;;;;;;;;5052195;28;20806;-69
2022/07/20 14:31:41;;;;;;;6.68;4.30;;;;;;;;;;5038001;28;20043;-68
2022/07/20 14:34:06;;;;;;;3.85;3.65;;;;;;;;;;5051921;28;20024;-68
2022/07/20 14:36:31;;;;;;;5.25;4.38;;;;;;;;;;5049431;28;20035;-67
2022/07/20 14:38:57;;;;;;;5.05;4.55;;;;;;;;;;5051532;28;20522;-69
2022/07/20 14:41:22;;;;;;;9.18;4.63;;;;;;;;;;5033994;28;20040;-69
2022/07/20 14:43:47;;;;;;;6.03;4.20;;;;;;;;;;5051705;28;20036;-69